Time;durP1;ratioP1;P1;durP2;ratioP2;P2;SDS_P1;SDS_P2;PMS_P1;PMS_P2;Temp;Humidity;BMP_temperature;BMP_pressure;BME280_temperature;BME280_humidity;BME280_pressure;Samples;Min_cycle;Max_cycle;Signal;HPM_P1;HPM_P2
2021/04/28 00:02:22;;;;;;;7.80;3.95;;;8.90;99.90;;;;;;5091347;28;20537;-57
2021/04/28 00:04:48;;;;;;;7.25;3.83;;;8.90;99.90;;;;;;5090298;28;20032;-54
2021/04/28 00:07:14;;;;;;;9.85;3.95;;;8.90;99.90;;;;;;5092449;28;20020;-56
2021/04/28 00:09:39;;;;;;;10.40;4.78;;;8.90;99.90;;;;;;5085133;28;20283;-56
2021/04/28 00:12:05;;;;;;;6.00;3.63;;;8.80;99.90;;;;;;5092389;28;20051;-56
2021/04/28 00:14:31;;;;;;;7.65;4.00;;;8.80;99.90;;;;;;5090923;28;20091;-56
2021/04/28 00:16:58;;;;;;;17.10;3.88;;;8.70;99.90;;;;;;5094525;28;20024;-55
2021/04/28 00:19:24;;;;;;;9.10;3.80;;;8.70;99.90;;;;;;5090886;28;20028;-55
2021/04/28 00:21:50;;;;;;;10.18;4.43;;;8.60;99.90;;;;;;5091838;28;20032;-57
2021/04/28 00:24:15;;;;;;;8.70;4.50;;;8.60;99.90;;;;;;5091921;28;20032;-56
2021/04/28 00:26:41;;;;;;;7.25;4.13;;;8.60;99.90;;;;;;5092111;28;20039;-57
2021/04/28 00:29:06;;;;;;;9.68;3.90;;;8.60;99.90;;;;;;5087195;28;20032;-55
2021/04/28 00:31:33;;;;;;;7.68;4.00;;;8.60;99.90;;;;;;5088770;28;20397;-55
2021/04/28 00:34:00;;;;;;;7.07;4.43;;;8.60;99.90;;;;;;5091141;28;20024;-57
2021/04/28 00:36:25;;;;;;;12.60;4.40;;;8.60;99.90;;;;;;5091544;28;20019;-56
2021/04/28 00:38:52;;;;;;;8.95;3.90;;;8.60;99.90;;;;;;5091378;28;20044;-54
2021/04/28 00:41:18;;;;;;;13.88;6.03;;;8.50;99.90;;;;;;5091001;28;20032;-56
2021/04/28 00:43:43;;;;;;;6.82;3.83;;;8.50;99.90;;;;;;5087893;28;20085;-57
2021/04/28 00:46:09;;;;;;;12.18;4.70;;;8.40;99.90;;;;;;5091878;28;20032;-53
2021/04/28 00:48:35;;;;;;;10.00;4.50;;;8.40;99.90;;;;;;5088526;28;20031;-55
2021/04/28 00:51:03;;;;;;;9.05;4.50;;;8.40;99.90;;;;;;5090926;28;20562;-53
2021/04/28 00:53:29;;;;;;;13.98;4.90;;;8.30;99.90;;;;;;5091813;28;20071;-55
2021/04/28 00:55:56;;;;;;;9.13;4.47;;;8.30;99.90;;;;;;5089683;28;20048;-54
2021/04/28 00:58:24;;;;;;;16.83;4.70;;;8.30;99.90;;;;;;5089066;28;20047;-56
2021/04/28 01:00:50;;;;;;;10.43;4.43;;;8.20;99.90;;;;;;5089510;28;20032;-55
2021/04/28 01:03:23;;;;;;;12.30;4.50;;;8.10;99.90;;;;;;5088947;28;20028;-55
2021/04/28 01:05:52;;;;;;;14.35;5.13;;;8.10;99.90;;;;;;5090701;28;20390;-56
2021/04/28 01:08:19;;;;;;;9.65;5.00;;;8.00;99.90;;;;;;5089101;28;20058;-55
2021/04/28 01:10:45;;;;;;;10.88;4.65;;;8.10;99.90;;;;;;5089813;28;20043;-57
2021/04/28 01:13:11;;;;;;;13.07;4.78;;;8.00;99.90;;;;;;5090861;28;20028;-56
2021/04/28 01:15:38;;;;;;;8.90;5.18;;;8.00;99.90;;;;;;5088814;28;20047;-56
2021/04/28 01:18:04;;;;;;;10.68;5.18;;;8.00;99.90;;;;;;5092511;28;20027;-56
2021/04/28 01:20:32;;;;;;;8.30;4.70;;;8.00;99.90;;;;;;5073142;28;20106;-57
2021/04/28 01:22:58;;;;;;;8.65;4.75;;;7.90;99.90;;;;;;5089679;28;20027;-54
2021/04/28 01:25:26;;;;;;;9.68;5.25;;;7.90;99.90;;;;;;5085545;28;20064;-53
2021/04/28 01:27:54;;;;;;;9.48;4.78;;;7.80;99.90;;;;;;5086494;28;20036;-53
2021/04/28 01:30:21;;;;;;;7.32;4.13;;;7.70;99.90;;;;;;5085735;28;20028;-57
2021/04/28 01:32:49;;;;;;;10.73;5.25;;;7.70;99.90;;;;;;5090909;28;20081;-57
2021/04/28 01:35:16;;;;;;;10.27;4.95;;;7.60;99.90;;;;;;5087044;28;20104;-57
2021/04/28 01:37:43;;;;;;;12.60;4.65;;;7.60;99.90;;;;;;5090766;28;20414;-55
2021/04/28 01:40:11;;;;;;;9.63;5.30;;;7.60;99.90;;;;;;5089376;28;20036;-57
2021/04/28 01:42:37;;;;;;;8.23;4.32;;;7.60;99.90;;;;;;5089103;28;20073;-56
2021/04/28 01:45:03;;;;;;;14.57;5.15;;;7.50;99.90;;;;;;5090576;28;20024;-53
2021/04/28 01:47:29;;;;;;;9.70;4.55;;;7.50;99.90;;;;;;5089247;28;20047;-55
2021/04/28 01:49:56;;;;;;;16.17;5.05;;;7.50;99.90;;;;;;5088747;28;20032;-53
2021/04/28 01:52:22;;;;;;;11.75;5.13;;;7.50;99.90;;;;;;5091921;28;20110;-54
2021/04/28 01:54:48;;;;;;;8.35;5.18;;;7.40;99.90;;;;;;5088962;28;20095;-54
2021/04/28 01:57:14;;;;;;;12.57;5.53;;;7.40;99.90;;;;;;5090092;28;20036;-53
2021/04/28 01:59:41;;;;;;;9.05;5.38;;;7.30;99.90;;;;;;5085434;28;20111;-56
2021/04/28 02:02:09;;;;;;;10.57;6.25;;;7.20;99.90;;;;;;5090578;28;20032;-54
2021/04/28 02:04:36;;;;;;;10.98;6.10;;;7.10;99.90;;;;;;5087735;28;20513;-55
2021/04/28 02:07:03;;;;;;;11.88;6.15;;;7.00;99.90;;;;;;5086003;28;20031;-57
2021/04/28 02:09:29;;;;;;;15.57;5.78;;;6.90;99.90;;;;;;5089777;28;20074;-55
2021/04/28 02:11:55;;;;;;;10.52;5.65;;;6.80;99.90;;;;;;5084497;28;20056;-53
2021/04/28 02:14:21;;;;;;;13.23;6.40;;;6.70;99.90;;;;;;5086396;28;20024;-56
2021/04/28 02:16:48;;;;;;;10.35;5.70;;;6.70;99.90;;;;;;5090692;28;20039;-56
2021/04/28 02:19:15;;;;;;;9.20;5.18;;;6.60;99.90;;;;;;5089941;28;20032;-54
2021/04/28 02:21:43;;;;;;;9.30;5.43;;;6.60;99.90;;;;;;5088120;28;20024;-55
2021/04/28 02:24:12;;;;;;;8.43;5.43;;;6.50;99.90;;;;;;5090786;28;20567;-57
2021/04/28 02:26:38;;;;;;;14.80;6.32;;;6.50;99.90;;;;;;5089873;28;20028;-54
2021/04/28 02:29:04;;;;;;;11.88;5.82;;;6.40;99.90;;;;;;5091371;28;20101;-54
2021/04/28 02:31:30;;;;;;;13.55;4.97;;;6.40;99.90;;;;;;5091119;28;20107;-56
2021/04/28 02:33:56;;;;;;;13.35;5.47;;;6.40;99.90;;;;;;5090599;28;20024;-57
2021/04/28 02:36:23;;;;;;;9.68;5.43;;;6.40;99.90;;;;;;5090004;28;20032;-53
2021/04/28 02:38:54;;;;;;;18.48;5.63;;;6.30;99.90;;;;;;5088755;28;20375;-56
2021/04/28 02:41:22;;;;;;;12.68;6.78;;;6.30;99.90;;;;;;5087864;28;20042;-52
2021/04/28 02:43:48;;;;;;;13.98;5.55;;;6.30;99.90;;;;;;5090332;28;20400;-57
2021/04/28 02:46:16;;;;;;;11.00;6.32;;;6.30;99.90;;;;;;5089270;28;20103;-56
2021/04/28 02:48:44;;;;;;;12.30;5.15;;;6.20;99.90;;;;;;5089591;28;20050;-53
2021/04/28 02:51:10;;;;;;;9.32;5.45;;;6.20;99.90;;;;;;5090198;28;20024;-57
2021/04/28 02:53:36;;;;;;;12.68;7.22;;;6.20;99.90;;;;;;5088102;28;20097;-55
2021/04/28 02:56:02;;;;;;;13.43;6.65;;;6.20;99.90;;;;;;5086545;28;20068;-56
2021/04/28 02:58:28;;;;;;;15.45;7.07;;;6.00;99.90;;;;;;5091041;28;20032;-53
2021/04/28 03:00:56;;;;;;;12.43;6.22;;;6.00;99.90;;;;;;5089793;28;20055;-55
2021/04/28 03:03:22;;;;;;;15.80;6.53;;;5.80;99.90;;;;;;5089330;28;20397;-57
2021/04/28 03:05:52;;;;;;;9.60;5.65;;;5.70;99.90;;;;;;5081467;28;20512;-56
2021/04/28 03:08:19;;;;;;;12.35;6.93;;;5.70;99.90;;;;;;5089536;28;20066;-56
2021/04/28 03:10:47;;;;;;;17.67;6.60;;;5.70;99.90;;;;;;5089169;28;20047;-53
2021/04/28 03:13:12;;;;;;;13.57;6.32;;;5.70;99.90;;;;;;5086596;28;20031;-55
2021/04/28 03:15:38;;;;;;;14.73;6.82;;;5.70;99.90;;;;;;5082844;28;20024;-54
2021/04/28 03:18:04;;;;;;;16.63;7.43;;;5.60;99.90;;;;;;5089005;28;20028;-56
2021/04/28 03:20:30;;;;;;;11.25;5.75;;;5.60;99.90;;;;;;5087298;28;20035;-53
2021/04/28 03:22:56;;;;;;;20.10;8.10;;;5.50;99.90;;;;;;5089127;28;20494;-55
2021/04/28 03:25:22;;;;;;;15.20;6.55;;;5.50;99.90;;;;;;5089268;28;20031;-55
2021/04/28 03:27:47;;;;;;;15.32;6.72;;;5.40;99.90;;;;;;5090884;28;20024;-55
2021/04/28 03:30:14;;;;;;;10.48;6.30;;;5.40;99.90;;;;;;5090279;28;20028;-53
2021/04/28 03:32:39;;;;;;;19.25;7.72;;;5.30;99.90;;;;;;5092677;28;20028;-53
2021/04/28 03:35:05;;;;;;;12.57;7.05;;;5.20;99.90;;;;;;5092745;28;20070;-55
2021/04/28 03:37:31;;;;;;;13.52;7.43;;;5.10;99.90;;;;;;5093060;28;20085;-55
2021/04/28 03:39:56;;;;;;;17.60;7.80;;;5.00;99.90;;;;;;5092439;28;20040;-55
2021/04/28 03:42:23;;;;;;;13.00;6.45;;;5.00;99.90;;;;;;5090057;28;20043;-52
2021/04/28 03:44:51;;;;;;;16.80;8.25;;;5.00;99.90;;;;;;5091710;28;20035;-52
2021/04/28 03:47:18;;;;;;;15.18;6.63;;;4.90;99.90;;;;;;5090571;28;20119;-52
2021/04/28 03:49:44;;;;;;;16.20;7.32;;;4.90;99.90;;;;;;5088156;28;20172;-55
2021/04/28 03:52:10;;;;;;;19.25;9.10;;;4.90;99.90;;;;;;5090829;28;20391;-53
2021/04/28 03:54:36;;;;;;;17.42;7.45;;;4.90;99.90;;;;;;5088232;28;20212;-54
2021/04/28 03:57:03;;;;;;;13.25;7.07;;;4.90;99.90;;;;;;5093327;28;20082;-53
2021/04/28 03:59:28;;;;;;;18.33;7.32;;;4.90;99.90;;;;;;5092452;28;20323;-53
2021/04/28 04:01:54;;;;;;;17.92;8.13;;;4.90;99.90;;;;;;5092734;28;20086;-56
2021/04/28 04:04:19;;;;;;;14.45;8.63;;;4.90;99.90;;;;;;5089574;28;20386;-56
2021/04/28 04:06:45;;;;;;;12.88;7.10;;;5.00;99.90;;;;;;5086483;28;20035;-56
2021/04/28 04:09:10;;;;;;;16.08;7.55;;;5.00;99.90;;;;;;5092041;28;20315;-54
2021/04/28 04:11:36;;;;;;;19.70;7.63;;;5.10;99.90;;;;;;5089566;28;20111;-53
2021/04/28 04:14:02;;;;;;;16.67;7.50;;;5.10;99.90;;;;;;5092301;28;20032;-55
2021/04/28 04:16:27;;;;;;;17.98;7.50;;;5.20;99.90;;;;;;5091717;28;20084;-52
2021/04/28 04:18:53;;;;;;;17.27;7.65;;;5.20;99.90;;;;;;5090328;28;20040;-52
2021/04/28 04:21:18;;;;;;;14.65;6.90;;;5.20;99.90;;;;;;5091985;28;20032;-52
2021/04/28 04:23:44;;;;;;;15.73;7.38;;;5.10;99.90;;;;;;5092352;28;20043;-56
2021/04/28 04:26:09;;;;;;;15.77;7.90;;;5.00;99.90;;;;;;5089010;28;20039;-54
2021/04/28 04:28:35;;;;;;;18.10;7.97;;;4.90;99.90;;;;;;5091895;28;20028;-56
2021/04/28 04:31:00;;;;;;;13.70;6.97;;;4.90;99.90;;;;;;5085892;28;20056;-56
2021/04/28 04:33:26;;;;;;;19.02;7.30;;;4.90;99.90;;;;;;5092215;28;20063;-56
2021/04/28 04:35:51;;;;;;;19.88;8.55;;;4.90;99.90;;;;;;5082343;28;20032;-55
2021/04/28 04:38:17;;;;;;;17.05;8.13;;;5.00;99.90;;;;;;5093506;28;20036;-55
2021/04/28 04:40:43;;;;;;;21.20;7.53;;;5.00;99.90;;;;;;5092306;28;20086;-55
2021/04/28 04:43:09;;;;;;;17.02;8.27;;;5.10;99.90;;;;;;5090080;28;20028;-53
2021/04/28 04:45:35;;;;;;;13.00;8.35;;;5.10;99.90;;;;;;5091767;28;20543;-56
2021/04/28 04:48:02;;;;;;;22.17;9.50;;;5.10;99.90;;;;;;5087380;28;20032;-56
2021/04/28 04:50:28;;;;;;;19.55;8.43;;;5.20;99.90;;;;;;5090558;28;20023;-57
2021/04/28 04:52:54;;;;;;;18.45;8.10;;;5.20;99.90;;;;;;5109723;22;20050;-58
2021/04/28 04:55:21;;;;;;;14.50;7.38;;;5.30;99.90;;;;;;5106134;28;20509;-58
2021/04/28 04:57:47;;;;;;;15.85;7.97;;;5.40;99.90;;;;;;5109100;28;20046;-56
2021/04/28 05:00:13;;;;;;;16.90;9.20;;;5.40;99.90;;;;;;5108685;28;20433;-58
2021/04/28 05:02:39;;;;;;;14.82;8.38;;;5.60;99.90;;;;;;5103442;28;20028;-58
2021/04/28 05:05:06;;;;;;;12.60;7.28;;;5.70;99.90;;;;;;5108211;28;20050;-56
2021/04/28 05:07:31;;;;;;;15.05;8.65;;;5.80;99.90;;;;;;5100338;28;20450;-57
2021/04/28 05:09:57;;;;;;;17.13;8.20;;;5.80;99.90;;;;;;5105376;28;20020;-57
2021/04/28 05:12:23;;;;;;;13.88;7.95;;;5.90;99.90;;;;;;5106658;28;20020;-57
2021/04/28 05:14:48;;;;;;;14.55;8.77;;;6.00;99.90;;;;;;5106947;28;20028;-58
2021/04/28 05:17:14;;;;;;;18.40;8.32;;;6.00;99.90;;;;;;5109459;28;20055;-58
2021/04/28 05:19:39;;;;;;;17.42;8.52;;;6.10;99.90;;;;;;5105899;28;20036;-55
2021/04/28 05:22:05;;;;;;;18.35;9.93;;;6.20;99.90;;;;;;5108936;28;20134;-57
2021/04/28 05:24:30;;;;;;;19.38;8.35;;;6.30;99.90;;;;;;5106364;28;20052;-57
2021/04/28 05:26:56;;;;;;;14.30;8.25;;;6.40;99.90;;;;;;5108430;28;20023;-57
2021/04/28 05:29:21;;;;;;;14.45;8.15;;;6.40;99.90;;;;;;5099231;28;20719;-57
2021/04/28 05:31:47;;;;;;;16.08;9.02;;;6.50;99.90;;;;;;5106583;28;20022;-57
2021/04/28 05:34:12;;;;;;;13.10;8.18;;;6.60;99.90;;;;;;5099946;28;20507;-58
2021/04/28 05:36:38;;;;;;;14.95;8.85;;;6.70;99.90;;;;;;5105748;28;20023;-53
2021/04/28 05:39:04;;;;;;;12.10;8.70;;;6.80;99.90;;;;;;5108502;28;20047;-58
2021/04/28 05:41:30;;;;;;;14.65;8.43;;;6.80;99.90;;;;;;5100917;28;20020;-54
2021/04/28 05:43:56;;;;;;;15.48;8.10;;;6.90;99.90;;;;;;5106584;28;20035;-56
2021/04/28 05:46:23;;;;;;;17.48;8.07;;;7.00;99.90;;;;;;5104955;27;20042;-54
2021/04/28 05:48:49;;;;;;;15.85;7.30;;;7.10;99.90;;;;;;5091139;28;20051;-56
2021/04/28 05:51:15;;;;;;;19.65;8.15;;;7.20;99.90;;;;;;5090218;28;20466;-56
2021/04/28 05:53:40;;;;;;;15.00;7.38;;;7.30;99.90;;;;;;5100688;28;20092;-56
2021/04/28 05:56:07;;;;;;;14.57;7.53;;;7.40;99.90;;;;;;5071640;28;20454;-57
2021/04/28 05:58:33;;;;;;;11.63;7.00;;;7.50;99.90;;;;;;5105177;28;20035;-57
2021/04/28 06:01:00;;;;;;;14.90;7.60;;;7.60;99.90;;;;;;5108110;28;20081;-56
2021/04/28 06:03:25;;;;;;;12.98;6.53;;;7.70;99.90;;;;;;5107903;28;20358;-56
2021/04/28 06:05:51;;;;;;;14.02;6.53;;;7.80;99.90;;;;;;5108173;28;20045;-58
2021/04/28 06:08:17;;;;;;;18.35;7.05;;;7.90;99.90;;;;;;5088359;28;20039;-57
2021/04/28 06:10:43;;;;;;;17.80;7.57;;;8.00;99.90;;;;;;5097138;28;20042;-55
2021/04/28 06:13:09;;;;;;;12.95;7.03;;;8.10;99.90;;;;;;5107789;28;20023;-55
2021/04/28 06:15:36;;;;;;;12.82;6.65;;;8.20;99.90;;;;;;5099964;28;20046;-58
2021/04/28 06:18:05;;;;;;;20.20;6.82;;;8.30;99.90;;;;;;5105041;28;20558;-58
2021/04/28 06:20:32;;;;;;;14.05;6.47;;;8.40;99.90;;;;;;5089771;28;20023;-59
2021/04/28 06:22:57;;;;;;;14.18;7.20;;;8.50;99.90;;;;;;5103546;28;20027;-57
2021/04/28 06:25:23;;;;;;;16.42;7.85;;;8.60;99.90;;;;;;5102488;28;20093;-56
2021/04/28 06:27:48;;;;;;;14.52;6.82;;;8.70;99.90;;;;;;5096765;28;20432;-56
2021/04/28 06:30:14;;;;;;;12.00;6.63;;;8.80;99.90;;;;;;5102917;28;20115;-58
2021/04/28 06:32:40;;;;;;;19.50;7.35;;;8.90;99.90;;;;;;5112501;27;20038;-58
2021/04/28 06:35:07;;;;;;;10.93;6.45;;;9.00;99.90;;;;;;5108045;28;20462;-59
2021/04/28 06:37:33;;;;;;;17.88;7.38;;;9.10;99.90;;;;;;5107640;28;20027;-58
2021/04/28 06:39:59;;;;;;;13.10;7.40;;;9.20;99.90;;;;;;5101110;28;20445;-58
2021/04/28 06:42:25;;;;;;;15.75;6.60;;;9.30;99.90;;;;;;5099836;28;20032;-59
2021/04/28 06:44:50;;;;;;;11.52;6.22;;;9.40;99.90;;;;;;5103433;28;20062;-56
2021/04/28 06:47:16;;;;;;;12.73;6.45;;;9.50;99.90;;;;;;5098390;28;20089;-56
2021/04/28 06:49:42;;;;;;;11.05;6.80;;;9.50;99.90;;;;;;5106230;28;20080;-53
2021/04/28 06:52:08;;;;;;;20.58;7.85;;;9.60;99.90;;;;;;5106954;28;20507;-53
2021/04/28 06:54:34;;;;;;;15.20;7.72;;;9.70;99.90;;;;;;5096003;28;20035;-56
2021/04/28 06:56:59;;;;;;;16.25;7.07;;;9.80;99.90;;;;;;5099605;28;20020;-56
2021/04/28 06:59:25;;;;;;;15.60;7.25;;;9.90;99.90;;;;;;5097942;28;20790;-55
2021/04/28 07:01:53;;;;;;;15.55;6.43;;;10.00;99.90;;;;;;5098688;28;20338;-53
2021/04/28 07:04:19;;;;;;;14.93;7.00;;;10.00;99.90;;;;;;5100183;28;20019;-54
2021/04/28 07:06:46;;;;;;;12.13;6.72;;;10.10;99.90;;;;;;5101548;28;20260;-55
2021/04/28 07:09:12;;;;;;;21.90;7.13;;;10.20;99.90;;;;;;5102938;28;20496;-54
2021/04/28 07:11:37;;;;;;;21.50;8.20;;;10.30;99.90;;;;;;5110900;28;20068;-54
2021/04/28 07:14:03;;;;;;;14.23;7.18;;;10.40;99.90;;;;;;5108501;27;20485;-55
2021/04/28 07:16:29;;;;;;;17.35;7.50;;;10.50;99.90;;;;;;5102625;28;20026;-52
2021/04/28 07:18:55;;;;;;;12.30;6.88;;;10.60;99.90;;;;;;5102575;28;20024;-53
2021/04/28 07:21:21;;;;;;;17.52;7.38;;;10.70;99.90;;;;;;5099958;28;20035;-54
2021/04/28 07:23:46;;;;;;;20.00;6.88;;;10.70;99.90;;;;;;5105946;28;20027;-55
2021/04/28 07:26:13;;;;;;;13.55;7.05;;;10.80;99.90;;;;;;5109245;28;20023;-52
2021/04/28 07:28:39;;;;;;;445.83;30.27;;;10.90;99.90;;;;;;5107026;28;20032;-54
2021/04/28 07:31:05;;;;;;;610.33;41.42;;;11.00;99.90;;;;;;5109083;28;20489;-52
2021/04/28 07:33:30;;;;;;;138.52;12.43;;;11.10;99.90;;;;;;5106333;28;20073;-52
2021/04/28 07:35:56;;;;;;;431.27;32.15;;;11.30;99.90;;;;;;5107762;28;20413;-53
2021/04/28 07:38:22;;;;;;;38.20;8.43;;;11.30;99.90;;;;;;5091237;28;20035;-52
2021/04/28 07:40:47;;;;;;;47.92;8.20;;;11.40;99.90;;;;;;5104732;28;20034;-54
2021/04/28 07:43:13;;;;;;;19.92;7.63;;;11.50;99.90;;;;;;5106493;28;20019;-52
2021/04/28 07:45:39;;;;;;;15.70;7.30;;;11.60;99.90;;;;;;5105366;28;20035;-51
2021/04/28 07:48:08;;;;;;;14.18;7.30;;;11.70;99.90;;;;;;5106803;28;20409;-51
2021/04/28 07:50:36;;;;;;;21.95;7.95;;;11.70;99.90;;;;;;5106867;27;20027;-51
2021/04/28 07:53:03;;;;;;;15.80;7.72;;;11.80;99.90;;;;;;5105683;28;20130;-54
2021/04/28 07:55:30;;;;;;;14.82;7.38;;;11.90;99.90;;;;;;5105085;28;20089;-52
2021/04/28 07:57:56;;;;;;;14.98;7.72;;;11.90;99.90;;;;;;5105058;28;20210;-53
2021/04/28 08:00:22;;;;;;;14.98;7.70;;;12.00;99.90;;;;;;5107514;28;20051;-54
2021/04/28 08:02:47;;;;;;;17.45;7.90;;;12.10;99.90;;;;;;5109355;28;20107;-53
2021/04/28 08:05:13;;;;;;;13.68;7.70;;;12.20;99.90;;;;;;5104235;28;20103;-54
2021/04/28 08:07:39;;;;;;;22.13;7.80;;;12.30;99.90;;;;;;5107538;27;20031;-55
2021/04/28 08:10:06;;;;;;;27.08;9.13;;;12.40;99.90;;;;;;5107609;28;20146;-51
2021/04/28 08:12:32;;;;;;;16.60;7.47;;;12.50;99.90;;;;;;5108741;28;20028;-55
2021/04/28 08:14:58;;;;;;;18.88;7.82;;;12.60;99.90;;;;;;5107379;28;20110;-54
2021/04/28 08:17:23;;;;;;;18.80;7.63;;;12.80;99.90;;;;;;5103970;28;20115;-53
2021/04/28 08:19:49;;;;;;;20.38;9.15;;;13.00;99.90;;;;;;5099426;28;20099;-53
2021/04/28 08:22:15;;;;;;;26.73;8.57;;;13.00;99.90;;;;;;5109204;27;20404;-53
2021/04/28 08:24:40;;;;;;;17.20;7.30;;;13.10;99.90;;;;;;5103734;27;20036;-51
2021/04/28 08:27:06;;;;;;;15.30;7.28;;;13.30;99.90;;;;;;5105554;27;20128;-53
2021/04/28 08:29:32;;;;;;;20.70;7.38;;;13.30;99.90;;;;;;5107848;27;20019;-53
2021/04/28 08:31:57;;;;;;;13.13;7.20;;;13.40;99.90;;;;;;5088485;28;20019;-52
2021/04/28 08:34:23;;;;;;;32.10;7.72;;;13.50;99.90;;;;;;5104114;28;20031;-53
2021/04/28 08:36:48;;;;;;;11.93;7.45;;;13.60;99.90;;;;;;5107822;28;20529;-54
2021/04/28 08:39:14;;;;;;;17.60;7.97;;;13.70;99.90;;;;;;5100274;28;20020;-55
2021/04/28 08:41:40;;;;;;;20.67;7.70;;;13.80;99.90;;;;;;5109423;28;20027;-55
2021/04/28 08:44:07;;;;;;;18.25;8.93;;;14.00;99.90;;;;;;5108226;27;20104;-55
2021/04/28 08:46:35;;;;;;;32.45;8.98;;;14.10;99.90;;;;;;5107103;28;20032;-53
2021/04/28 08:49:01;;;;;;;15.63;8.07;;;14.20;99.90;;;;;;5106978;28;20400;-54
2021/04/28 08:51:27;;;;;;;15.68;7.72;;;14.40;99.90;;;;;;5106975;28;20027;-53
2021/04/28 08:53:52;;;;;;;16.05;7.85;;;14.50;99.90;;;;;;5107256;28;20039;-55
2021/04/28 08:56:19;;;;;;;14.88;7.68;;;14.50;99.90;;;;;;5108569;28;20083;-51
2021/04/28 08:58:45;;;;;;;16.27;7.05;;;14.50;99.90;;;;;;5109699;28;20027;-51
2021/04/28 09:01:29;;;;;;;16.77;7.43;;;14.60;99.90;;;;;;5104491;28;20034;-51
2021/04/28 09:03:57;;;;;;;12.98;8.27;;;14.80;99.90;;;;;;5108260;28;20027;-52
2021/04/28 09:06:30;;;;;;;17.50;8.07;;;15.00;99.90;;;;;;5107754;28;20103;-51
2021/04/28 09:08:56;;;;;;;12.57;7.05;;;15.20;99.90;;;;;;5107998;28;20067;-52
2021/04/28 09:11:42;;;;;;;17.73;7.65;;;15.30;99.90;;;;;;5108450;28;20023;-52
2021/04/28 09:14:11;;;;;;;25.15;8.40;;;15.40;99.90;;;;;;5109239;27;20035;-53
2021/04/28 09:16:45;;;;;;;12.95;6.78;;;15.50;99.90;;;;;;5109072;28;20481;-53
2021/04/28 09:19:30;;;;;;;17.45;7.57;;;15.70;99.90;;;;;;5107963;28;20653;-54
2021/04/28 09:22:01;;;;;;;;;;;16.00;99.90;;;;;;5110353;28;20039;-54
2021/04/28 09:24:30;;;;;;;21.50;8.40;;;16.30;99.90;;;;;;5109038;28;19908;-56
2021/04/28 09:26:57;;;;;;;22.63;8.80;;;16.50;99.90;;;;;;5088875;28;20023;-57
2021/04/28 09:29:28;;;;;;;16.60;7.55;;;16.70;99.90;;;;;;5108320;28;20052;-55
2021/04/28 09:31:58;;;;;;;10.73;7.20;;;16.90;99.90;;;;;;5109071;28;20024;-54
2021/04/28 09:34:35;;;;;;;12.95;6.72;;;17.10;99.90;;;;;;5107550;28;20035;-54
2021/04/28 09:37:19;;;;;;;17.38;7.53;;;17.20;99.90;;;;;;5102094;28;20039;-55
2021/04/28 09:39:51;;;;;;;12.57;7.15;;;17.50;99.90;;;;;;5103852;28;20035;-54
2021/04/28 09:42:18;;;;;;;14.93;7.43;;;17.60;99.00;;;;;;5105043;28;20062;-56
2021/04/28 09:44:48;;;;;;;15.55;7.45;;;17.80;98.00;;;;;;5106861;28;20032;-53
2021/04/28 09:47:20;;;;;;;10.43;7.15;;;17.80;98.10;;;;;;5108004;28;20035;-54
2021/04/28 09:49:59;;;;;;;11.23;6.72;;;18.00;96.30;;;;;;5109359;28;20042;-53
2021/04/28 09:52:33;;;;;;;22.60;8.38;;;18.20;98.20;;;;;;5103400;27;20023;-52
2021/04/28 09:55:06;;;;;;;15.43;7.25;;;18.40;94.80;;;;;;5089785;28;20564;-53
2021/04/28 09:57:35;;;;;;;13.77;7.80;;;18.60;96.50;;;;;;5107565;28;20143;-54
2021/04/28 10:00:03;;;;;;;17.42;9.68;;;18.80;93.40;;;;;;5106774;28;20084;-55
2021/04/28 10:02:31;;;;;;;15.18;7.97;;;18.80;95.20;;;;;;5108546;28;20164;-56
2021/04/28 10:05:19;;;;;;;10.52;7.10;;;18.80;93.10;;;;;;5107309;28;20122;-54
2021/04/28 10:07:44;;;;;;;12.18;6.68;;;19.20;92.30;;;;;;5105870;28;20118;-53
2021/04/28 10:10:17;;;;;;;14.15;7.40;;;19.40;93.10;;;;;;5110007;28;20114;-56
2021/04/28 10:12:42;;;;;;;19.33;7.85;;;19.70;93.20;;;;;;5109798;28;20023;-57
2021/04/28 10:15:09;;;;;;;14.27;7.50;;;20.00;90.90;;;;;;5106983;28;20080;-55
2021/04/28 10:17:35;;;;;;;15.73;7.70;;;20.20;90.50;;;;;;5107139;28;20685;-57
2021/04/28 10:20:03;;;;;;;13.38;6.60;;;20.10;87.70;;;;;;5108235;28;20073;-57
2021/04/28 10:22:29;;;;;;;17.95;7.32;;;20.20;81.50;;;;;;5107060;28;20134;-56
2021/04/28 10:24:56;;;;;;;14.45;8.15;;;20.00;88.10;;;;;;5081009;28;20028;-57
2021/04/28 10:27:22;;;;;;;32.28;8.27;;;20.20;82.80;;;;;;5108950;28;20041;-56
2021/04/28 10:29:50;;;;;;;15.95;8.20;;;20.50;81.30;;;;;;5101595;28;20027;-56
2021/04/28 10:32:19;;;;;;;19.77;8.02;;;20.80;82.40;;;;;;5105750;27;20023;-57
2021/04/28 10:34:57;;;;;;;22.67;9.07;;;21.00;82.50;;;;;;5110156;28;20028;-57
2021/04/28 10:37:27;;;;;;;23.27;7.82;;;21.20;78.10;;;;;;5106706;28;20024;-57
2021/04/28 10:39:53;;;;;;;17.27;8.77;;;21.30;78.60;;;;;;5108948;28;20121;-57
2021/04/28 10:42:36;;;;;;;75.07;10.65;;;21.10;79.20;;;;;;5105167;27;20184;-57
2021/04/28 10:45:08;;;;;;;16.45;7.88;;;21.10;75.40;;;;;;5109306;28;20031;-57
2021/04/28 10:47:39;;;;;;;18.35;8.60;;;21.20;73.40;;;;;;5110339;28;20103;-56
2021/04/28 10:50:36;;;;;;;16.80;9.00;;;21.20;68.40;;;;;;5106279;28;20099;-57
2021/04/28 10:53:17;;;;;;;12.95;7.70;;;21.10;79.20;;;;;;5112858;22;20035;-53
2021/04/28 10:55:56;;;;;;;27.67;7.65;;;21.20;72.20;;;;;;5060612;28;20048;-57
2021/04/28 10:58:29;;;;;;;14.80;7.50;;;21.50;74.10;;;;;;5063938;28;20025;-53
2021/04/28 11:00:58;;;;;;;11.85;8.13;;;21.50;66.80;;;;;;5061120;28;20016;-51
2021/04/28 11:03:31;;;;;;;13.23;7.50;;;21.60;67.50;;;;;;5057185;28;20024;-54
2021/04/28 11:06:20;;;;;;;13.23;7.40;;;21.60;66.00;;;;;;5035642;28;20709;-54
2021/04/28 11:09:08;;;;;;;12.90;7.55;;;21.80;63.70;;;;;;5041790;28;20067;-54
2021/04/28 11:11:44;;;;;;;77.18;15.95;;;22.00;60.30;;;;;;5041524;28;20064;-57
2021/04/28 11:14:10;;;;;;;12.40;8.07;;;21.90;65.30;;;;;;5039272;28;20028;-56
2021/04/28 11:16:42;;;;;;;11.63;7.80;;;22.10;66.40;;;;;;5043948;28;20032;-56
2021/04/28 11:19:34;;;;;;;13.82;8.48;;;22.10;70.30;;;;;;5039188;28;20567;-57
2021/04/28 11:22:08;;;;;;;15.43;8.45;;;22.50;67.00;;;;;;5037483;28;20525;-54
2021/04/28 11:25:16;;;;;;;23.85;9.70;;;22.60;64.20;;;;;;5041798;28;20044;-56
2021/04/28 11:27:50;;;;;;;16.00;7.70;;;22.70;62.00;;;;;;5042551;28;20631;-55
2021/04/28 11:30:22;;;;;;;;;;;22.60;62.50;;;;;;5045129;28;20029;-50
2021/04/28 11:33:12;;;;;;;30.17;9.77;;;22.30;63.40;;;;;;5045856;28;19915;-53
2021/04/28 11:35:43;;;;;;;14.02;8.23;;;22.60;63.80;;;;;;5037363;28;20028;-55
2021/04/28 11:38:12;;;;;;;15.88;9.50;;;22.80;60.80;;;;;;5041339;28;20029;-54
2021/04/28 11:40:50;;;;;;;12.07;7.80;;;23.00;64.30;;;;;;5043330;28;20033;-54
2021/04/28 11:43:21;;;;;;;20.15;9.50;;;23.10;64.40;;;;;;5047930;28;20071;-53
2021/04/28 11:45:47;;;;;;;16.35;9.70;;;22.70;60.60;;;;;;5046040;28;20391;-53
2021/04/28 11:48:21;;;;;;;16.30;10.13;;;22.80;63.50;;;;;;5045826;28;20029;-53
2021/04/28 11:50:58;;;;;;;17.75;9.23;;;22.70;61.50;;;;;;5043438;28;20029;-55
2021/04/28 11:53:25;;;;;;;18.02;9.55;;;22.70;60.70;;;;;;5053041;28;20032;-55
2021/04/28 11:55:51;;;;;;;20.80;8.57;;;22.70;60.90;;;;;;5071741;28;20132;-54
2021/04/28 11:58:24;;;;;;;16.98;8.80;;;22.60;59.30;;;;;;5072235;28;20348;-52
2021/04/28 12:01:02;;;;;;;19.15;9.10;;;22.80;60.30;;;;;;5072286;28;20048;-52
2021/04/28 12:03:28;;;;;;;15.02;8.75;;;23.30;60.00;;;;;;5071210;28;20030;-55
2021/04/28 12:05:54;;;;;;;17.33;10.00;;;23.40;63.20;;;;;;5071772;28;20025;-55
2021/04/28 12:08:19;;;;;;;18.38;9.68;;;23.10;58.60;;;;;;5071619;28;20029;-54
2021/04/28 12:10:53;;;;;;;15.75;9.98;;;22.90;59.00;;;;;;5070842;28;20059;-54
2021/04/28 12:13:19;;;;;;;19.70;10.88;;;22.70;58.70;;;;;;5067510;28;20074;-54
2021/04/28 12:15:52;;;;;;;561.50;68.97;;;22.20;58.50;;;;;;5071182;28;20132;-54
2021/04/28 12:18:32;;;;;;;18.27;9.40;;;22.70;58.80;;;;;;5071084;28;20024;-53
2021/04/28 12:21:00;;;;;;;18.15;10.02;;;22.80;62.50;;;;;;5068030;28;20401;-53
2021/04/28 12:23:26;;;;;;;21.65;10.23;;;22.60;59.10;;;;;;5071389;28;20033;-53
2021/04/28 12:25:52;;;;;;;18.85;10.27;;;23.00;59.50;;;;;;5069979;28;20024;-54
2021/04/28 12:28:18;;;;;;;26.17;10.07;;;23.20;59.10;;;;;;5069472;28;20032;-53
2021/04/28 12:30:48;;;;;;;17.40;8.95;;;23.30;58.00;;;;;;5064578;28;20084;-56
2021/04/28 12:33:14;;;;;;;19.73;10.13;;;23.30;58.90;;;;;;5071633;28;20028;-55
2021/04/28 12:35:40;;;;;;;36.95;9.00;;;22.90;56.10;;;;;;5064387;28;20452;-53
2021/04/28 12:38:13;;;;;;;21.13;9.65;;;23.00;59.10;;;;;;5068017;28;20067;-52
2021/04/28 12:40:46;;;;;;;15.48;8.23;;;23.10;55.30;;;;;;5069156;28;20490;-55
2021/04/28 12:43:27;;;;;;;13.63;8.18;;;22.80;56.80;;;;;;5070040;28;20025;-55
2021/04/28 12:46:19;;;;;;;15.13;9.52;;;22.50;61.00;;;;;;5067656;28;20101;-55
2021/04/28 12:49:00;;;;;;;35.03;11.35;;;22.40;58.30;;;;;;5066675;28;20037;-54